Norris, South Dakota
Current Conditions -  °F | °C
As of 5:55 PM on Saturday 22 Nov 2014 (Local Time) from KPHP Reporting Station
Clear Clear  
Wind Chill: 52°   Ceiling: Unl
Heat Index: 52°   Visibility: 10mi
Dew Point: 31°   Wind: 0mph
Humidity: 45%   Direction: NA
Pressure: 29.42"   Gusts: NA
Location:  43.47°N, 101.2°W
Report Text: KPHP 230055Z AUTO 00000KT 10SM CLR 11/M01 A2942 RMK AO2 SLP969 T01111006 $
Loading
Personal Weather Stations






























Interactive Weather Map New forecast layout! Learn more

10-Day Weather Forecast

Advertisements
Track Severe Weather on mobile